RJAW/IWO METAR and TAF weather

Enter ICAO airport designator
Station Type Date Time Source
RJAW METAR 2018/12/11 20:00 UTC NOAA

RJAW 112000Z 13011KT 9999 FEW015 SCT100 25/24 Q1015 RMK 2CU015 3AC100 A2997


Station Type Date Time Source
RJAW Decoded METAR 2018/12/11 20:00 UTC NOAA

Iwojima, Japan (RJAW) 24-47N 141-19E 116M
Dec 11, 2018 - 03:00 PM EST / 2018.12.11 2000 UTC
Wind: from the SE (130 degrees) at 13 MPH (11 KT):0
Visibility: greater than 7 mile(s):0
Sky conditions: partly cloudy
Temperature: 77 F (25 C)
Dew Point: 75 F (24 C)
Relative Humidity: 94%
Pressure (altimeter): 29.97 in. Hg (1015 hPa)
ob: RJAW 112000Z 13011KT 9999 FEW015 SCT100 25/24 Q1015 RMK 2CU015 3AC100 A2997
cycle: 20

Station Type Date Time Source
RJAW TAF UTC NOAA

Error!


Example: see airport list